• Join FlightAware (Why Join?)
  • Login
  • US Flag 
08:45PM EDT


 

Airport Tracker/Info


-or-


 

Live Flight TrackerFlight Track Log ✈ ASQ5740 ✈ 25-Sep-2013 ✈ KIAD - KGSP

Flight Track Log - Related Links

Times and Time Zones

All times are in EDT time to prevent confusion due to time zone crossing. See the ASQ5740 flight status page for this flight to view local times or setup timezone preferences in your user account.

Time Position Orientation Groundspeed Altitude Reporting Facility
EDT Latitude Longitude Course Direction KTS MPH feet Rate Location/Type
02:15PM 38.9333 -77.5333 226° Southwest 192 221 1,900  Level Potomac TRACON
02:16PM 38.8667 -77.5833 210° Southwest 259 298 4,100 2,340 Climbing Potomac TRACON
02:17PM 38.8000 -77.5833 180° South 277 319 6,700 2,580 Climbing Potomac TRACON
02:18PM 38.6596 -77.8234 238° Southwest  Level Estimated
02:18PM 38.7333 -77.6167 201° Southwest 279 321 9,300  Level Potomac TRACON
02:19PM 38.5875 -77.9138 238° Southwest  Level Estimated
02:19PM 38.6894 -77.6450 207° Southwest 287 330 10,100  Level Washington Center
02:20PM 38.5153 -78.0040 226° Southwest  Level Estimated
02:20PM 38.6219 -77.6961 211° Southwest 314 361 11,200  Level Washington Center
02:21PM 38.5394 -77.7603 211° Southwest 333 383 12,700 1,500 Climbing Washington Center
02:22PM 38.4569 -77.8214 210° Southwest 338 389 14,200 1,440 Climbing Washington Center
02:23PM 38.3703 -77.8850 210° Southwest 349 402 15,600 1,380 Climbing Washington Center
02:24PM 38.2856 -77.9514 212° Southwest 354 407 17,000 1,320 Climbing Washington Center
02:25PM 38.2008 -78.0147 210° Southwest 364 419 18,300 960 Climbing Washington Center
02:26PM 38.1119 -78.0806 210° Southwest 369 425 19,000 300 Climbing Washington Center
02:27PM 38.0208 -78.1511 211° Southwest 374 430 19,000  Level Washington Center
02:28PM 37.9369 -78.2694 228° Southwest 391 450 19,000  Level Washington Center
02:29PM 37.8592 -78.3825 229° Southwest 412 474 19,000 420 Level Washington Center
02:30PM 37.7817 -78.4925 228° Southwest 424 488 19,900 1,020 Climbing Washington Center
02:31PM 37.7058 -78.6000 228° Southwest 424 488 21,100 1,140 Climbing Washington Center
02:32PM 37.6408 -78.6944 229° Southwest 413 475 22,200 960 Climbing Washington Center
02:33PM 37.5717 -78.7911 228° Southwest 398 458 23,100 780 Climbing Washington Center
02:34PM 37.5000 -78.8903 228° Southwest 386 444 23,800 600 Climbing Washington Center
02:35PM 37.4306 -78.9892 229° Southwest 386 444 24,400 720 Climbing Washington Center
02:36PM 37.3525 -79.0981 228° Southwest 381 438 25,300 720 Climbing Washington Center
02:37PM 37.2806 -79.1967 227° Southwest 387 445 25,900 300 Climbing Washington Center
02:38PM 37.2128 -79.2978 230° Southwest 387 445 26,000  Climbing Washington Center
02:39PM 37.1406 -79.4036 229° Southwest 392 451 26,000  Level Washington Center
02:40PM 37.0639 -79.5169 230° Southwest 406 467 26,000  Level Washington Center
02:41PM 37.0003 -79.6153 231° Southwest 417 480 26,000  Level Washington Center
02:42PM 36.9233 -79.7256 229° Southwest 417 480 26,000  Level Washington Center
02:43PM 36.8464 -79.8381 229° Southwest 417 480 26,000  Level Washington Center
02:45PM 36.6567 -80.1133 229° Southwest 437 503 26,000  Level Atlanta Center
02:46PM 36.5828 -80.2178 229° Southwest 425 489 26,000  Level Atlanta Center
02:47PM 36.4872 -80.2997 215° Southwest 415 478 26,000 -120 Level Atlanta Center
02:48PM 36.3717 -80.3361 194° South 409 471 25,800 -420 Descending Atlanta Center
02:49PM 36.2436 -80.3806 196° South 430 495 25,200 -600 Descending Atlanta Center
02:50PM 36.1219 -80.4247 196° South 435 501 24,700 -480 Descending Atlanta Center
02:51PM 36.0061 -80.4631 195° South 440 506 24,300 -480 Descending Atlanta Center
02:52PM 35.8864 -80.5042 196° South 445 512 23,800 -600 Descending Atlanta Center
02:53PM 35.7667 -80.5506 197° South 451 519 23,200 -600 Descending Atlanta Center
02:54PM 35.6928 -80.6686 232° Southwest 425 489 22,700 -1,380 Descending Atlanta Center
02:55PM 35.6394 -80.7808 240° Southwest 425 489 20,600 -2,340 Descending Atlanta Center
02:55PM 35.6314 -80.7886 218° Southwest 420 483 20,400 -2,400 Descending Atlanta Center
02:56PM 35.5719 -80.9033 238° Southwest 420 483 18,100 -2,340 Descending Atlanta Center
02:56PM 35.5700 -80.9136 257° West 396 456 18,000 -1,800 Descending Atlanta Center
02:57PM 35.5200 -81.0022 235° Southwest 402 463 16,300 -2,040 Descending Atlanta Center
02:57PM 35.5122 -81.0256 248° West 380 437 15,900 -1,440 Descending Atlanta Center
02:58PM 35.4603 -81.1194 236° Southwest 365 420 14,900 -1,020 Descending Atlanta Center
02:58PM 35.4622 -81.1092 77° East 389 448 15,000 -840 Climbing Atlanta Center
02:59PM 35.3983 -81.2386 239° Southwest 362 417 14,000 -900 Descending Atlanta Center
03:00PM 35.3444 -81.3450 238° Southwest 369 425 13,200 -960 Descending Atlanta Center
03:01PM 35.2942 -81.4381 237° Southwest 379 436 12,200 -1,260 Descending Atlanta Center
03:02PM 35.2400 -81.5389 237° Southwest 374 430 10,900 -1,140 Descending Atlanta Center
03:03PM 35.1900 -81.6372 238° Southwest 364 419 10,000 -480 Descending Atlanta Center
03:04PM 35.1456 -81.7197 237° Southwest 325 374 10,000 -480 Level Atlanta Center
03:05PM 35.0969 -81.7947 232° Southwest 296 341 9,100 -1,080 Descending Atlanta Center
03:06PM 35.0522 -81.8669 233° Southwest 274 315 7,900 -1,200 Descending Atlanta Center
03:07PM 35.0094 -81.9314 231° Southwest 274 315 6,700 -1,140 Descending Atlanta Center
03:08PM 34.9650 -82.0036 233° Southwest 274 315 5,700 -1,080 Descending Atlanta Center
03:09PM 34.9119 -82.0808 230° Southwest 279 321 4,600 -900 Descending Atlanta Center
03:10PM 34.8481 -82.1381 216° Southwest 279 321 4,000 -300 Descending Atlanta Center
03:11PM 34.7861 -82.1875 213° Southwest 279 321 4,000  Level Atlanta Center
03:12PM 34.7264 -82.2367 214° Southwest 273 314 4,000  Level Atlanta Center
03:13PM 34.6747 -82.2758 212° Southwest 250 288 4,000  Level Atlanta Center
03:14PM 34.6736 -82.3414 269° West 185 213 4,000  Level Atlanta Center
03:15PM 34.7178 -82.3583 342° North 129 148 4,000 -60 Level Atlanta Center
03:16PM 34.7589 -82.3222 36° Northeast 105 121 3,900 -600 Descending Atlanta Center
03:17PM 34.8022 -82.2908 31° Northeast 138 159 2,800 -900 Descending Atlanta Center
03:18PM 34.8333 -82.2650 34° Northeast 154 177 2,100 -720 Descending Atlanta Center